createdAt,value
2022-08-16T00:01:51.325Z,96992.66
2022-08-16T00:04:05.365Z,96992.38
2022-08-16T00:06:15.561Z,96994.34
2022-08-16T00:08:35.874Z,96993.50
2022-08-16T00:10:44.841Z,97000.22
2022-08-16T00:12:54.686Z,96994.75
2022-08-16T00:15:06.203Z,97000.94
2022-08-16T00:17:19.777Z,97001.38
2022-08-16T00:19:41.008Z,96994.25
2022-08-16T00:21:52.261Z,96994.03
2022-08-16T00:24:04.791Z,96997.94
2022-08-16T00:26:36.100Z,96997.41
2022-08-16T00:28:42.289Z,97000.88
2022-08-16T00:30:53.894Z,96996.34
2022-08-16T00:33:08.322Z,96994.25
2022-08-16T00:35:21.682Z,97006.81
2022-08-16T00:37:56.630Z,97001.84
2022-08-16T00:39:58.998Z,97002.16
2022-08-16T00:42:10.170Z,97002.78
2022-08-16T00:44:20.525Z,97000.09
2022-08-16T00:46:35.484Z,96998.25
2022-08-16T00:48:45.763Z,97001.22
2022-08-16T00:50:56.228Z,96997.03
2022-08-16T00:53:04.396Z,97001.56
2022-08-16T00:55:12.829Z,97004.25
2022-08-16T00:57:24.017Z,97007.34
2022-08-16T00:59:34.688Z,97009.09
2022-08-16T01:01:44.801Z,97013.63
2022-08-16T01:03:55.743Z,97014.91
2022-08-16T01:06:40.379Z,97014.50
2022-08-16T01:08:41.430Z,97011.66
2022-08-16T01:10:55.836Z,97008.41
2022-08-16T01:13:12.243Z,97010.59
2022-08-16T01:15:23.689Z,97005.63
2022-08-16T01:17:36.925Z,97013.63
2022-08-16T01:19:49.723Z,97012.16
2022-08-16T01:22:47.669Z,97010.88
2022-08-16T01:24:51.688Z,97016.94
2022-08-16T01:27:05.212Z,97016.34
2022-08-16T01:29:21.919Z,97018.97
2022-08-16T01:31:49.952Z,97010.78
2022-08-16T01:34:00.254Z,97018.81
2022-08-16T01:36:13.149Z,97016.91
2022-08-16T01:38:25.862Z,97020.56
2022-08-16T01:40:39.092Z,97021.94
2022-08-16T01:42:50.027Z,97016.97
2022-08-16T01:45:02.362Z,97026.31
2022-08-16T01:47:12.647Z,97013.63
2022-08-16T01:49:24.930Z,97011.78
2022-08-16T01:51:59.204Z,97013.28
2022-08-16T01:54:31.007Z,97016.13
2022-08-16T01:56:42.671Z,97011.16
2022-08-16T01:58:51.582Z,97014.69
2022-08-16T02:00:59.725Z,97015.69
2022-08-16T02:03:12.726Z,97012.22
2022-08-16T02:05:21.266Z,97012.06
2022-08-16T02:07:32.406Z,97016.19
2022-08-16T02:09:41.355Z,97006.31
2022-08-16T02:11:57.753Z,97017.66
2022-08-16T02:14:07.937Z,97016.81
2022-08-16T02:16:26.899Z,97019.88
2022-08-16T02:18:35.394Z,97014.06
2022-08-16T02:20:50.256Z,97009.78
2022-08-16T02:23:05.620Z,97013.13
2022-08-16T02:25:17.195Z,97016.31
2022-08-16T02:27:27.923Z,97012.66
2022-08-16T02:29:41.524Z,97015.19
2022-08-16T02:32:04.370Z,97008.38
2022-08-16T02:34:32.688Z,97008.66
2022-08-16T02:36:49.931Z,97003.84
2022-08-16T02:39:00.831Z,97003.06
2022-08-16T02:41:12.020Z,97005.75
2022-08-16T02:43:26.741Z,97012.13
2022-08-16T02:45:35.635Z,97011.75
2022-08-16T02:48:01.713Z,97016.78
2022-08-16T02:50:54.413Z,97016.53
2022-08-16T02:52:43.843Z,97012.41
2022-08-16T02:54:55.170Z,97013.34
2022-08-16T02:57:03.944Z,97003.84
2022-08-16T02:59:14.704Z,97001.91
2022-08-16T03:01:36.480Z,97009.13
2022-08-16T03:04:29.000Z,96995.91
2022-08-16T03:06:41.292Z,96994.66
2022-08-16T03:08:56.823Z,96994.38
2022-08-16T03:11:16.919Z,96993.59
2022-08-16T03:13:27.737Z,96990.69
2022-08-16T03:15:38.658Z,96987.47
2022-08-16T03:17:53.019Z,96993.56
2022-08-16T03:20:02.721Z,96987.53
2022-08-16T03:22:19.564Z,96995.47
2022-08-16T03:24:38.847Z,96982.97
2022-08-16T03:26:53.582Z,96976.13
2022-08-16T03:29:06.596Z,96973.88
2022-08-16T03:31:18.797Z,96970.81
2022-08-16T03:33:27.309Z,96976.16
2022-08-16T03:35:41.528Z,96979.16
2022-08-16T03:38:02.389Z,96971.13
2022-08-16T03:40:31.707Z,96977.31
2022-08-16T03:43:19.288Z,96974.78
2022-08-16T03:45:13.058Z,96968.25
2022-08-16T03:47:27.890Z,96977.63
2022-08-16T03:49:43.829Z,96980.69
2022-08-16T03:51:53.954Z,96978.84
2022-08-16T03:54:12.753Z,96971.34
2022-08-16T03:56:23.059Z,96971.81
2022-08-16T03:58:33.751Z,96973.31
2022-08-16T04:00:42.508Z,96979.06
2022-08-16T04:03:02.533Z,96989.06
2022-08-16T04:05:14.516Z,96984.56
2022-08-16T04:07:24.682Z,96980.63
2022-08-16T04:09:35.375Z,96987.22
2022-08-16T04:11:43.909Z,96983.44
2022-08-16T04:14:00.776Z,96977.13
2022-08-16T04:16:27.580Z,96970.63
2022-08-16T04:18:45.461Z,96984.31
2022-08-16T04:20:54.933Z,96976.84
2022-08-16T04:23:08.260Z,96988.16
2022-08-16T04:25:19.026Z,96981.63
2022-08-16T04:27:28.838Z,96982.22
2022-08-16T04:29:46.064Z,96984.06
2022-08-16T04:31:58.074Z,96997.34
2022-08-16T04:34:15.836Z,97005.66
2022-08-16T04:36:28.787Z,96998.00
2022-08-16T04:38:37.323Z,97009.06
2022-08-16T04:40:47.777Z,97009.47
2022-08-16T04:43:00.743Z,97014.34
2022-08-16T04:45:17.899Z,97017.03
2022-08-16T04:47:32.878Z,97032.63
2022-08-16T04:49:46.753Z,97036.41
2022-08-16T04:51:57.289Z,97045.34
2022-08-16T04:54:05.383Z,97049.56
2022-08-16T04:56:14.541Z,97047.44
2022-08-16T04:58:44.472Z,97057.53
2022-08-16T05:00:52.981Z,97058.69
2022-08-16T05:03:07.517Z,97058.63
2022-08-16T05:05:30.621Z,97046.88
2022-08-16T05:07:59.477Z,97054.06
2022-08-16T05:10:19.509Z,97052.25
2022-08-16T05:12:31.321Z,97049.41
2022-08-16T05:14:46.574Z,97050.41
2022-08-16T05:17:08.880Z,97055.59
2022-08-16T05:19:19.661Z,97056.69
2022-08-16T05:21:53.320Z,97055.50
2022-08-16T05:24:01.930Z,97059.53
2022-08-16T05:26:20.050Z,97058.72
2022-08-16T05:28:30.830Z,97063.22
2022-08-16T05:30:50.425Z,97067.03
2022-08-16T05:33:02.388Z,97070.84
2022-08-16T05:35:14.592Z,97067.69
2022-08-16T05:37:49.937Z,97070.69
2022-08-16T05:39:58.187Z,97064.91
2022-08-16T05:42:07.066Z,97061.50
2022-08-16T05:44:23.078Z,97057.75
2022-08-16T05:46:33.941Z,97057.88
2022-08-16T05:48:54.682Z,97058.97
2022-08-16T05:51:04.125Z,97065.59
2022-08-16T05:53:18.666Z,97066.47
2022-08-16T05:55:46.327Z,97067.38
2022-08-16T05:57:59.197Z,97067.94
2022-08-16T06:00:10.915Z,97073.31
2022-08-16T06:02:24.749Z,97075.56
2022-08-16T06:04:38.242Z,97067.78
2022-08-16T06:06:57.430Z,97075.88
2022-08-16T06:09:11.928Z,97080.00
2022-08-16T06:11:25.654Z,97082.28
2022-08-16T06:13:37.833Z,97085.47
2022-08-16T06:15:54.468Z,97096.09
2022-08-16T06:18:02.428Z,97114.19
2022-08-16T06:20:14.508Z,97117.09
2022-08-16T06:22:37.666Z,97108.56
2022-08-16T06:24:54.847Z,97132.63
2022-08-16T06:27:05.084Z,97133.66
2022-08-16T06:29:14.587Z,97117.84
2022-08-16T06:31:24.658Z,97124.66
2022-08-16T06:33:40.329Z,97136.56
2022-08-16T06:35:50.790Z,97156.25
2022-08-16T06:38:03.646Z,97156.63
2022-08-16T06:40:15.877Z,97161.09
2022-08-16T06:42:39.334Z,97163.16
2022-08-16T06:45:13.018Z,97157.03
2022-08-16T06:47:23.389Z,97151.06
2022-08-16T06:49:53.844Z,97163.19
2022-08-16T06:52:06.443Z,97152.53
2022-08-16T06:54:35.016Z,97168.16
2022-08-16T06:56:46.264Z,97163.44
2022-08-16T06:58:56.925Z,97160.78
2022-08-16T07:01:14.880Z,97158.22
2022-08-16T07:03:32.520Z,97141.59
2022-08-16T07:05:47.348Z,97165.53
2022-08-16T07:08:04.874Z,97135.28
2022-08-16T07:10:14.059Z,97146.69
2022-08-16T07:12:36.672Z,97150.25
2022-08-16T07:14:57.314Z,97166.75
2022-08-16T07:17:11.331Z,97159.47
2022-08-16T07:19:33.771Z,97149.25
2022-08-16T07:21:59.101Z,97160.91
2022-08-16T07:24:10.199Z,97171.78
2022-08-16T07:26:41.236Z,97150.72
2022-08-16T07:29:00.817Z,97142.22
2022-08-16T07:31:13.256Z,97156.97
2022-08-16T07:33:51.277Z,97148.56
2022-08-16T07:35:52.773Z,97172.38
2022-08-16T07:38:03.000Z,97161.63
2022-08-16T07:40:59.747Z,97148.41
2022-08-16T07:43:00.590Z,97141.50
2022-08-16T07:45:14.265Z,97146.31
2022-08-16T07:47:31.503Z,97126.78
2022-08-16T07:49:53.219Z,97117.34
2022-08-16T07:52:19.128Z,97112.19
2022-08-16T07:54:37.991Z,97108.72
2022-08-16T07:56:51.281Z,97110.34
2022-08-16T07:59:01.494Z,97104.34
2022-08-16T08:01:16.476Z,97097.44
2022-08-16T08:03:40.006Z,97077.13
2022-08-16T08:05:51.485Z,97084.88
2022-08-16T08:08:11.931Z,97080.59
2022-08-16T08:10:32.360Z,97094.53
2022-08-16T08:12:47.799Z,97101.31
2022-08-16T08:14:57.622Z,97104.94
2022-08-16T08:17:09.122Z,97109.09
2022-08-16T08:19:18.627Z,97113.63
2022-08-16T08:21:59.692Z,97120.75
2022-08-16T08:24:44.184Z,97116.06
2022-08-16T08:26:53.624Z,97122.97
2022-08-16T08:29:01.884Z,97122.09
2022-08-16T08:31:11.415Z,97125.41
2022-08-16T08:33:30.731Z,97120.59
2022-08-16T08:35:45.448Z,97124.28
2022-08-16T08:37:56.611Z,97119.06
2022-08-16T08:40:12.830Z,97127.66
2022-08-16T08:42:25.145Z,97123.94
2022-08-16T08:44:58.777Z,97121.63
2022-08-16T08:47:17.186Z,97116.78
2022-08-16T08:49:46.883Z,97116.06
2022-08-16T08:51:59.065Z,97122.97
2022-08-16T08:54:09.465Z,97126.97
2022-08-16T08:56:23.737Z,97123.31
2022-08-16T08:58:40.219Z,97127.97
2022-08-16T09:01:13.633Z,97128.41
2022-08-16T09:03:42.135Z,97128.16
2022-08-16T09:05:53.727Z,97125.69
2022-08-16T09:08:05.796Z,97128.19
2022-08-16T09:10:56.728Z,97129.25
2022-08-16T09:13:18.772Z,97135.22
2022-08-16T09:15:32.830Z,97131.97
2022-08-16T09:17:51.609Z,97135.22
2022-08-16T09:20:13.699Z,97127.41
2022-08-16T09:22:25.970Z,97130.03
2022-08-16T09:24:51.755Z,97138.94
2022-08-16T09:27:03.402Z,97131.84
2022-08-16T09:29:15.505Z,97131.44
2022-08-16T09:31:28.644Z,97127.19
2022-08-16T09:33:39.228Z,97142.28
2022-08-16T09:35:53.274Z,97154.53
2022-08-16T09:38:04.637Z,97164.59
2022-08-16T09:40:29.338Z,97164.56
2022-08-16T09:43:05.272Z,97188.38
2022-08-16T09:45:18.046Z,97195.59
2022-08-16T09:47:28.215Z,97203.25
2022-08-16T09:49:56.411Z,97204.91
2022-08-16T09:52:04.924Z,97200.97
2022-08-16T09:54:20.961Z,97186.97
2022-08-16T09:56:32.292Z,97182.13
2022-08-16T09:59:04.893Z,97186.47
2022-08-16T10:01:11.429Z,97175.25
2022-08-16T10:03:20.586Z,97177.59
2022-08-16T10:05:33.672Z,97177.69
2022-08-16T10:07:44.183Z,97181.41
2022-08-16T10:09:56.494Z,97169.47
2022-08-16T10:12:19.711Z,97159.81
2022-08-16T10:14:32.834Z,97154.06
2022-08-16T10:16:42.489Z,97141.59
2022-08-16T10:19:01.867Z,97146.88
2022-08-16T10:21:17.103Z,97145.28
2022-08-16T10:23:26.428Z,97144.13
2022-08-16T10:27:17.213Z,97148.72
2022-08-16T10:28:27.598Z,97166.97
2022-08-16T10:30:38.951Z,97158.50
2022-08-16T10:32:48.163Z,97154.44
2022-08-16T10:34:56.071Z,97153.16
2022-08-16T10:37:05.321Z,97158.88
2022-08-16T10:39:15.923Z,97168.56
2022-08-16T10:41:27.859Z,97170.19
2022-08-16T10:43:38.670Z,97164.97
2022-08-16T10:46:00.459Z,97173.47
2022-08-16T10:48:27.342Z,97176.81
2022-08-16T10:50:36.848Z,97165.56
2022-08-16T10:52:44.810Z,97164.00
2022-08-16T10:54:59.054Z,97169.72
2022-08-16T10:57:13.776Z,97166.91
2022-08-16T10:59:32.631Z,97170.47
2022-08-16T11:01:44.105Z,97160.75
2022-08-16T11:03:54.240Z,97163.03
2022-08-16T11:06:07.563Z,97172.97
2022-08-16T11:08:31.164Z,97177.28
2022-08-16T11:11:06.567Z,97174.53
2022-08-16T11:13:58.247Z,97171.78
2022-08-16T11:15:55.511Z,97171.91
2022-08-16T11:20:41.283Z,97167.75
2022-08-16T11:22:52.470Z,97171.91
2022-08-16T11:26:06.076Z,97166.13
2022-08-16T11:27:35.628Z,97161.03
2022-08-16T11:29:48.362Z,97156.53
2022-08-16T11:31:56.598Z,97144.44
2022-08-16T11:34:04.544Z,97153.47
2022-08-16T11:36:27.934Z,97155.22
2022-08-16T11:38:51.838Z,97150.44
2022-08-16T11:41:04.262Z,97153.06
2022-08-16T11:43:16.663Z,97153.81
2022-08-16T11:45:28.278Z,97147.25
2022-08-16T11:47:42.232Z,97146.56
2022-08-16T11:49:51.348Z,97145.34
2022-08-16T11:52:01.770Z,97147.34
2022-08-16T11:54:20.639Z,97146.53
2022-08-16T11:56:51.664Z,97150.91
2022-08-16T11:58:59.456Z,97152.34
2022-08-16T12:01:10.593Z,97146.25
2022-08-16T12:03:19.278Z,97153.91
2022-08-16T12:05:31.406Z,97148.25
2022-08-16T12:07:40.740Z,97143.22
2022-08-16T12:09:55.685Z,97140.97
2022-08-16T12:12:04.003Z,97144.75
2022-08-16T12:14:20.101Z,97153.31
2022-08-16T12:16:34.821Z,97160.91
2022-08-16T12:18:43.317Z,97144.03
2022-08-16T12:20:51.265Z,97149.75
2022-08-16T12:23:03.462Z,97148.31
2022-08-16T12:25:17.316Z,97145.25
2022-08-16T12:27:26.924Z,97147.09
2022-08-16T12:29:35.496Z,97146.69
2022-08-16T12:31:59.229Z,97140.06
2022-08-16T12:34:19.725Z,97132.38
2022-08-16T12:36:39.404Z,97130.59
2022-08-16T12:38:53.004Z,97126.19
2022-08-16T12:41:01.553Z,97135.25
2022-08-16T12:43:12.742Z,97131.47
2022-08-16T12:45:24.061Z,97136.84
2022-08-16T12:47:47.596Z,97124.75
2022-08-16T12:50:00.242Z,97117.28
2022-08-16T12:52:08.169Z,97117.59
2022-08-16T12:54:20.073Z,97120.66
2022-08-16T12:56:33.129Z,97125.09
2022-08-16T12:58:49.443Z,97124.28
2022-08-16T13:01:00.362Z,97123.53
2022-08-16T13:03:21.453Z,97119.63
2022-08-16T13:05:53.306Z,97115.16
2022-08-16T13:08:05.997Z,97110.00
2022-08-16T13:10:21.414Z,97105.50
2022-08-16T13:12:51.301Z,97108.50
2022-08-16T13:15:01.758Z,97119.94
2022-08-16T13:17:19.251Z,97107.81
2022-08-16T13:19:56.383Z,97107.41
2022-08-16T13:22:03.248Z,97108.31
2022-08-16T13:24:11.139Z,97111.00
2022-08-16T13:26:20.242Z,97096.41
2022-08-16T13:28:28.173Z,97093.34
2022-08-16T13:30:41.880Z,97103.38
2022-08-16T13:32:51.442Z,97093.47
2022-08-16T13:35:03.045Z,97098.38
2022-08-16T13:37:14.136Z,97096.16
2022-08-16T13:39:22.642Z,97090.75
2022-08-16T13:41:32.755Z,97094.22
2022-08-16T13:43:43.995Z,97092.56
2022-08-16T13:46:06.744Z,97081.53
2022-08-16T13:48:21.741Z,97086.47
2022-08-16T13:50:51.757Z,97086.75
2022-08-16T13:53:15.130Z,97083.88
2022-08-16T13:55:28.287Z,97086.13
2022-08-16T13:58:34.960Z,97086.94
2022-08-16T14:00:19.582Z,97078.34
2022-08-16T14:02:29.081Z,97080.19
2022-08-16T14:04:40.326Z,97080.63
2022-08-16T14:06:54.640Z,97087.19
2022-08-16T14:09:06.435Z,97080.34
2022-08-16T14:11:16.896Z,97077.91
2022-08-16T14:13:29.492Z,97085.38
2022-08-16T14:15:37.931Z,97077.53
2022-08-16T14:18:16.100Z,97071.47
2022-08-16T14:20:19.308Z,97068.69
2022-08-16T14:22:40.130Z,97077.03
2022-08-16T14:24:57.107Z,97068.97
2022-08-16T14:27:05.208Z,97064.72
2022-08-16T14:29:14.117Z,97063.19
2022-08-16T14:31:31.792Z,97059.56
2022-08-16T14:33:40.387Z,97067.69
2022-08-16T14:35:50.425Z,97067.75
2022-08-16T14:38:02.794Z,97068.13
2022-08-16T14:40:13.940Z,97068.53
2022-08-16T14:42:24.793Z,97072.47
2022-08-16T14:44:32.843Z,97059.34
2022-08-16T14:46:42.829Z,97061.78
2022-08-16T14:48:50.834Z,97058.03
2022-08-16T14:51:01.913Z,97065.22
2022-08-16T14:53:13.151Z,97062.53
2022-08-16T14:55:24.614Z,97065.25
2022-08-16T14:57:32.558Z,97073.03
2022-08-16T14:59:41.191Z,97064.31
2022-08-16T15:01:59.312Z,97058.94
2022-08-16T15:04:08.849Z,97064.06
2022-08-16T15:06:16.876Z,97068.06
2022-08-16T15:08:34.012Z,97062.91
2022-08-16T15:10:45.805Z,97064.72
2022-08-16T15:12:58.543Z,97061.84
2022-08-16T15:15:12.314Z,97067.75
2022-08-16T15:17:22.049Z,97057.28
2022-08-16T15:19:32.104Z,97046.94
2022-08-16T15:21:40.649Z,97046.78
2022-08-16T15:23:51.360Z,97049.44
2022-08-16T15:26:04.034Z,97053.19
2022-08-16T15:28:31.318Z,97060.34
2022-08-16T15:30:56.776Z,97062.41
2022-08-16T15:33:11.492Z,97053.19
2022-08-16T15:35:21.506Z,97065.25
2022-08-16T15:37:42.728Z,97053.03
2022-08-16T15:39:56.075Z,97052.38
2022-08-16T15:42:11.227Z,97059.06
2022-08-16T15:44:23.787Z,97062.63
2022-08-16T15:46:35.260Z,97059.69
2022-08-16T15:49:04.772Z,97054.94
2022-08-16T15:51:12.833Z,97053.88
2022-08-16T15:53:24.268Z,97056.84
2022-08-16T15:55:36.278Z,97056.31
2022-08-16T15:57:44.414Z,97050.72
2022-08-16T15:59:56.079Z,97055.00
2022-08-16T16:02:29.280Z,97053.13
2022-08-16T16:04:40.929Z,97046.00
2022-08-16T16:06:49.189Z,97044.09
2022-08-16T16:09:03.277Z,97044.97
2022-08-16T16:11:18.726Z,97053.09
2022-08-16T16:13:32.123Z,97047.94
2022-08-16T16:15:43.119Z,97054.44
2022-08-16T16:17:52.512Z,97050.81
2022-08-16T16:20:01.448Z,97050.72
2022-08-16T16:22:10.906Z,97049.06
2022-08-16T16:24:23.821Z,97041.25
2022-08-16T16:26:41.772Z,97047.13
2022-08-16T16:29:07.814Z,97041.16
2022-08-16T16:31:22.021Z,97036.63
2022-08-16T16:33:34.071Z,97031.16
2022-08-16T16:35:46.637Z,97037.53
2022-08-16T16:37:56.660Z,97031.63
2022-08-16T16:40:04.814Z,97032.16
2022-08-16T16:42:25.624Z,97033.16
2022-08-16T16:44:39.741Z,97030.94
2022-08-16T16:46:58.957Z,97042.09
2022-08-16T16:49:10.344Z,97029.63
2022-08-16T16:51:19.297Z,97031.38
2022-08-16T16:53:31.843Z,97034.94
2022-08-16T16:55:51.732Z,97032.91
2022-08-16T16:58:18.062Z,97034.56
2022-08-16T17:00:38.799Z,97032.50
2022-08-16T17:02:53.541Z,97030.97
2022-08-16T17:05:02.893Z,97030.53
2022-08-16T17:07:12.345Z,97032.28
2022-08-16T17:09:20.851Z,97034.75
2022-08-16T17:11:31.165Z,97037.34
2022-08-16T17:13:48.273Z,97039.19
2022-08-16T17:15:57.438Z,97029.53
2022-08-16T17:19:06.465Z,97039.19
2022-08-16T17:20:35.453Z,97037.78
2022-08-16T17:22:47.402Z,97037.44
2022-08-16T17:25:02.650Z,97042.69
2022-08-16T17:27:18.150Z,97036.22
2022-08-16T17:29:30.785Z,97041.31
2022-08-16T17:31:43.205Z,97039.63
2022-08-16T17:33:54.346Z,97042.81
2022-08-16T17:36:35.870Z,97032.63
2022-08-16T17:38:46.543Z,97037.06
2022-08-16T17:40:59.326Z,97036.19
2022-08-16T17:43:12.596Z,97040.25
2022-08-16T17:45:25.586Z,97038.59
2022-08-16T17:47:33.418Z,97036.50
2022-08-16T17:49:42.816Z,97037.84
2022-08-16T17:51:51.132Z,97033.00
2022-08-16T17:53:59.450Z,97041.69
2022-08-16T17:56:10.785Z,97036.06
2022-08-16T17:58:23.687Z,97042.81
2022-08-16T18:00:37.749Z,97044.09
2022-08-16T18:02:50.377Z,97045.81
2022-08-16T18:05:00.637Z,97044.97
2022-08-16T18:07:08.742Z,97042.69
2022-08-16T18:09:18.144Z,97040.63
2022-08-16T18:11:30.372Z,97037.75
2022-08-16T18:13:43.450Z,97038.16
2022-08-16T18:15:54.142Z,97043.63
2022-08-16T18:18:02.470Z,97032.34
2022-08-16T18:20:35.072Z,97035.69
2022-08-16T18:22:40.413Z,97035.28
2022-08-16T18:24:48.676Z,97034.44
2022-08-16T18:26:56.581Z,97042.59
2022-08-16T18:29:24.663Z,97035.91
2022-08-16T18:31:35.425Z,97033.56
2022-08-16T18:33:44.091Z,97042.53
2022-08-16T18:35:57.448Z,97039.97
2022-08-16T18:38:06.178Z,97039.09
2022-08-16T18:40:15.734Z,97036.13
2022-08-16T18:42:23.577Z,97033.16
2022-08-16T18:44:35.003Z,97028.28
2022-08-16T18:46:51.184Z,97034.47
2022-08-16T18:49:22.126Z,97021.25
2022-08-16T18:51:31.798Z,97035.84
2022-08-16T18:53:39.815Z,97029.09
2022-08-16T18:55:51.511Z,97034.53
2022-08-16T18:57:59.526Z,97036.31
2022-08-16T19:00:11.045Z,97036.84
2022-08-16T19:02:56.034Z,97039.66
2022-08-16T19:04:58.545Z,97034.41
2022-08-16T19:07:07.300Z,97041.47
2022-08-16T19:09:15.816Z,97035.78
2022-08-16T19:11:26.000Z,97037.22
2022-08-16T19:13:36.931Z,97042.38
2022-08-16T19:15:46.695Z,97041.53
2022-08-16T19:17:58.140Z,97040.16
2022-08-16T19:20:10.903Z,97046.97
2022-08-16T19:22:45.342Z,97044.47
2022-08-16T19:24:57.575Z,97043.16
2022-08-16T19:27:07.344Z,97054.22
2022-08-16T19:29:15.196Z,97056.50
2022-08-16T19:31:26.316Z,97059.78
2022-08-16T19:33:37.776Z,97055.53
2022-08-16T19:35:47.692Z,97060.63
2022-08-16T19:37:55.643Z,97067.53
2022-08-16T19:40:03.633Z,97072.84
2022-08-16T19:42:18.510Z,97071.53
2022-08-16T19:44:28.391Z,97073.19
2022-08-16T19:46:37.738Z,97076.22
2022-08-16T19:48:48.540Z,97066.63
2022-08-16T19:50:58.518Z,97062.75
2022-08-16T19:53:13.126Z,97062.91
2022-08-16T19:55:27.371Z,97059.94
2022-08-16T19:57:38.615Z,97057.22
2022-08-16T19:59:49.067Z,97065.16
2022-08-16T20:01:58.541Z,97058.66
2022-08-16T20:04:12.262Z,97058.72
2022-08-16T20:06:37.708Z,97055.94
2022-08-16T20:08:47.166Z,97063.97
2022-08-16T20:10:55.324Z,97068.44
2022-08-16T20:13:03.676Z,97080.66
2022-08-16T20:15:16.340Z,97070.34
2022-08-16T20:17:24.648Z,97073.94
2022-08-16T20:19:40.498Z,97068.72
2022-08-16T20:21:50.658Z,97064.59
2022-08-16T20:24:22.802Z,97067.59
2022-08-16T20:26:28.880Z,97071.03
2022-08-16T20:28:49.977Z,97066.47
2022-08-16T20:31:02.121Z,97066.56
2022-08-16T20:33:14.210Z,97070.66
2022-08-16T20:35:29.275Z,97070.34
2022-08-16T20:37:38.912Z,97072.53
2022-08-16T20:39:48.030Z,97072.53
2022-08-16T20:41:57.336Z,97073.88
2022-08-16T20:44:05.096Z,97071.63
2022-08-16T20:46:16.327Z,97064.00
2022-08-16T20:48:24.185Z,97071.97
2022-08-16T20:50:35.499Z,97075.34
2022-08-16T20:52:45.267Z,97064.31
2022-08-16T20:54:55.293Z,97073.22
2022-08-16T20:57:03.183Z,97074.81
2022-08-16T20:59:11.091Z,97075.66
2022-08-16T21:01:19.454Z,97064.91
2022-08-16T21:03:27.905Z,97066.97
2022-08-16T21:05:38.587Z,97080.03
2022-08-16T21:07:46.654Z,97074.28
2022-08-16T21:09:55.210Z,97076.19
2022-08-16T21:12:06.256Z,97069.16
2022-08-16T21:14:14.654Z,97070.19
2022-08-16T21:16:24.715Z,97074.84
2022-08-16T21:18:37.184Z,97077.06
2022-08-16T21:20:47.851Z,97083.44
2022-08-16T21:22:56.602Z,97080.84
2022-08-16T21:25:07.018Z,97081.84
2022-08-16T21:27:17.732Z,97092.66
2022-08-16T21:29:27.880Z,97088.66
2022-08-16T21:31:52.366Z,97094.75
2022-08-16T21:34:00.302Z,97090.34
2022-08-16T21:36:11.912Z,97096.88
2022-08-16T21:38:28.590Z,97100.09
2022-08-16T21:40:39.047Z,97103.41
2022-08-16T21:42:48.378Z,97097.63
2022-08-16T21:44:57.873Z,97097.31
2022-08-16T21:47:06.020Z,97099.00
2022-08-16T21:49:16.420Z,97098.22
2022-08-16T21:51:27.245Z,97106.88
2022-08-16T21:53:37.716Z,97103.69
2022-08-16T21:55:49.595Z,97108.31
2022-08-16T21:57:57.564Z,97106.16
2022-08-16T22:00:10.476Z,97106.78
2022-08-16T22:02:18.778Z,97102.75
2022-08-16T22:04:37.626Z,97109.06
2022-08-16T22:06:49.382Z,97108.88
2022-08-16T22:08:57.447Z,97105.53
2022-08-16T22:11:09.526Z,97104.38
2022-08-16T22:13:20.200Z,97104.84
2022-08-16T22:15:29.254Z,97109.78
2022-08-16T22:17:38.842Z,97120.13
2022-08-16T22:19:47.438Z,97112.25
2022-08-16T22:21:58.243Z,97113.97
2022-08-16T22:24:07.683Z,97113.81
2022-08-16T22:26:15.848Z,97119.53
2022-08-16T22:28:25.183Z,97119.06
2022-08-16T22:30:33.543Z,97119.06
2022-08-16T22:32:44.296Z,97119.06
2022-08-16T22:34:52.087Z,97118.56
2022-08-16T22:37:02.868Z,97114.38
2022-08-16T22:39:12.700Z,97113.88
2022-08-16T22:41:21.832Z,97122.16
2022-08-16T22:43:32.794Z,97125.34
2022-08-16T22:45:40.762Z,97116.94
2022-08-16T22:47:49.325Z,97120.09
2022-08-16T22:49:57.440Z,97115.69
2022-08-16T22:52:12.692Z,97118.69
2022-08-16T22:54:48.455Z,97117.56
2022-08-16T22:56:57.466Z,97112.53
2022-08-16T22:59:05.271Z,97115.44
2022-08-16T23:01:13.935Z,97106.50
2022-08-16T23:03:25.399Z,97109.41
2022-08-16T23:05:38.279Z,97107.22
2022-08-16T23:07:49.725Z,97106.88
2022-08-16T23:09:58.437Z,97108.38
2022-08-16T23:12:08.622Z,97107.53
2022-08-16T23:14:16.634Z,97100.97
2022-08-16T23:16:32.654Z,97097.78
2022-08-16T23:18:42.410Z,97093.91
2022-08-16T23:20:50.355Z,97093.41
2022-08-16T23:23:20.870Z,97091.56
2022-08-16T23:25:32.387Z,97083.31
2022-08-16T23:27:40.542Z,97083.47
2022-08-16T23:29:48.454Z,97092.91
2022-08-16T23:31:58.695Z,97095.94
2022-08-16T23:34:06.631Z,97086.34
2022-08-16T23:36:16.399Z,97090.03
2022-08-16T23:38:37.816Z,97085.34
2022-08-16T23:40:48.089Z,97088.19
2022-08-16T23:43:02.536Z,97085.66
2022-08-16T23:45:11.680Z,97080.09
2022-08-16T23:47:19.689Z,97083.97
2022-08-16T23:49:57.071Z,97079.97
2022-08-16T23:51:59.423Z,97068.81
2022-08-16T23:54:11.636Z,97067.81
2022-08-16T23:56:23.733Z,97071.16
2022-08-16T23:58:34.446Z,97072.69
